Impacts METAR Board INFO
IDs:

KPHX - Phoenix/Sky Harbor, AZ, US

Updated at: 1538 UTC 18 Jan 2018
Potential Impact None Slight Moderate High
Time18/03Z 18/04Z 18/05Z 18/06Z 18/07Z 18/08Z 18/09Z 18/10Z 18/11Z 18/12Z 18/13Z 18/14Z 18/15Z
VIS10 10 10 10 10 10 10 10 10 10 10 10 10
CIG-- -- -- -- -- -- -- -- -- -- -- -- --
CoverFEWSCTSCTFEWCLRCLRCLRCLRCLRFEWCLRSCTSCT
FltCatVFRVFRVFRVFRVFRVFRVFRVFRVFRVFRVFRVFRVFR
WX--------------------------
WDir30009011013011010010000801100
WSpd4 0 4 5 4 7 7 6 0 0 3 3 0
WGst-- -- -- -- -- -- -- -- -- -- -- -- --
Raw hourly METARs
KPHX 180251Z 30004KT 10SM FEW240 18/M03 A3015 RMK AO2 SLP203 T01831028 53014
KPHX 180351Z 00000KT 10SM FEW130 SCT240 17/M02 A3016 RMK AO2 SLP204 T01671022
KPHX 180451Z 09004KT 10SM FEW130 SCT240 14/00 A3018 RMK AO2 SLP211 T01440000
KPHX 180551Z 11005KT 10SM FEW240 13/01 A3017 RMK AO2 SLP210 T01330011 10222 20133 50006
KPHX 180651Z 13004KT 10SM CLR 12/M01 A3016 RMK AO2 SLP206 T01221006 402220111
KPHX 180751Z 11007KT 10SM CLR 13/M02 A3015 RMK AO2 SLP202 T01331022
KPHX 180851Z 10007KT 10SM CLR 12/M02 A3015 RMK AO2 SLP200 T01171022 56008
KPHX 180951Z 10006KT 10SM CLR 11/M03 A3015 RMK AO2 SLP200 T01111028
KPHX 181051Z 00000KT 10SM CLR 11/M03 A3014 RMK AO2 SLP197 T01061028
KPHX 181151Z 00000KT 10SM FEW250 10/M02 A3013 RMK AO2 SLP196 T01001022 10133 20100 58004
KPHX 181251Z 08003KT 10SM CLR 09/M02 A3014 RMK AO2 SLP198 T00941022
KPHX 181351Z 11003KT 10SM SCT250 08/M01 A3016 RMK AO2 SLP206 T00831011
KPHX 181451Z 00000KT 10SM SCT250 09/00 A3017 RMK AO2 SLP211 T00890000 53013